sensor_id;sensor_type;location;lat;lon;timestamp;pressure;altitude;pressure_sealevel;temperature;humidity
67987;BME280;54767;53.800;15.956;2023-05-02T00:00:10;99929.95;;;9.94;54.80
67987;BME280;54767;53.800;15.956;2023-05-02T00:02:59;99930.13;;;9.90;55.03
67987;BME280;54767;53.800;15.956;2023-05-02T00:05:28;99933.80;;;9.85;55.07
67987;BME280;54767;53.800;15.956;2023-05-02T00:07:57;99928.71;;;9.81;55.04
67987;BME280;54767;53.800;15.956;2023-05-02T00:10:25;99932.58;;;9.78;55.37
67987;BME280;54767;53.800;15.956;2023-05-02T00:12:53;99931.17;;;9.74;55.28
67987;BME280;54767;53.800;15.956;2023-05-02T00:15:21;99931.52;;;9.70;55.40
67987;BME280;54767;53.800;15.956;2023-05-02T00:17:49;99930.46;;;9.66;55.18
67987;BME280;54767;53.800;15.956;2023-05-02T00:20:18;99925.58;;;9.61;55.31
67987;BME280;54767;53.800;15.956;2023-05-02T00:22:46;99923.48;;;9.57;55.39
67987;BME280;54767;53.800;15.956;2023-05-02T00:25:14;99925.39;;;9.53;55.70
67987;BME280;54767;53.800;15.956;2023-05-02T00:27:44;99924.50;;;9.49;55.67
67987;BME280;54767;53.800;15.956;2023-05-02T00:30:13;99923.63;;;9.45;55.89
67987;BME280;54767;53.800;15.956;2023-05-02T00:32:41;99919.94;;;9.41;55.98
67987;BME280;54767;53.800;15.956;2023-05-02T00:35:10;99923.96;;;9.37;56.12
67987;BME280;54767;53.800;15.956;2023-05-02T00:37:38;99921.86;;;9.34;56.12
67987;BME280;54767;53.800;15.956;2023-05-02T00:40:06;99917.48;;;9.30;56.18
67987;BME280;54767;53.800;15.956;2023-05-02T00:42:35;99917.14;;;9.26;56.41
67987;BME280;54767;53.800;15.956;2023-05-02T00:45:05;99916.95;;;9.23;56.53
67987;BME280;54767;53.800;15.956;2023-05-02T00:47:34;99917.46;;;9.20;56.54
67987;BME280;54767;53.800;15.956;2023-05-02T00:50:02;99915.36;;;9.17;56.48
67987;BME280;54767;53.800;15.956;2023-05-02T00:52:32;99917.63;;;9.13;56.65
67987;BME280;54767;53.800;15.956;2023-05-02T00:55:00;99915.17;;;9.10;56.77
67987;BME280;54767;53.800;15.956;2023-05-02T00:57:29;99911.66;;;9.06;56.86
67987;BME280;54767;53.800;15.956;2023-05-02T00:59:57;99912.00;;;9.02;56.97
67987;BME280;54767;53.800;15.956;2023-05-02T01:02:48;99911.13;;;8.98;56.83
67987;BME280;54767;53.800;15.956;2023-05-02T01:05:27;99911.63;;;8.94;57.06
67987;BME280;54767;53.800;15.956;2023-05-02T01:08:09;99914.76;;;8.90;57.10
67987;BME280;54767;53.800;15.956;2023-05-02T01:10:47;99912.29;;;8.84;57.16
67987;BME280;54767;53.800;15.956;2023-05-02T01:15:46;99915.58;;;8.76;57.27
67987;BME280;54767;53.800;15.956;2023-05-02T01:18:17;99916.27;;;8.72;57.31
67987;BME280;54767;53.800;15.956;2023-05-02T01:20:54;99914.69;;;8.69;57.56
67987;BME280;54767;53.800;15.956;2023-05-02T01:23:39;99917.98;;;8.65;57.63
67987;BME280;54767;53.800;15.956;2023-05-02T01:26:35;99917.42;;;8.61;57.74
67987;BME280;54767;53.800;15.956;2023-05-02T01:29:06;99922.47;;;8.57;57.71
67987;BME280;54767;53.800;15.956;2023-05-02T01:31:38;99917.75;;;8.53;58.04
67987;BME280;54767;53.800;15.956;2023-05-02T01:34:09;99920.52;;;8.51;58.01
67987;BME280;54767;53.800;15.956;2023-05-02T01:36:41;99919.45;;;8.48;58.16
67987;BME280;54767;53.800;15.956;2023-05-02T01:39:15;99921.70;;;8.46;58.06
67987;BME280;54767;53.800;15.956;2023-05-02T01:41:48;99921.88;;;8.44;58.29
67987;BME280;54767;53.800;15.956;2023-05-02T01:44:22;99914.55;;;8.44;58.38
67987;BME280;54767;53.800;15.956;2023-05-02T01:46:53;99915.23;;;8.44;58.51
67987;BME280;54767;53.800;15.956;2023-05-02T01:49:23;99917.34;;;8.44;58.36
67987;BME280;54767;53.800;15.956;2023-05-02T01:51:52;99915.41;;;8.42;58.45
67987;BME280;54767;53.800;15.956;2023-05-02T01:54:22;99914.17;;;8.41;58.56
67987;BME280;54767;53.800;15.956;2023-05-02T01:56:51;99906.50;;;8.39;58.61
67987;BME280;54767;53.800;15.956;2023-05-02T01:59:21;99906.81;;;8.37;58.73
67987;BME280;54767;53.800;15.956;2023-05-02T02:01:51;99905.05;;;8.35;58.78
67987;BME280;54767;53.800;15.956;2023-05-02T02:04:22;99904.69;;;8.33;58.72
67987;BME280;54767;53.800;15.956;2023-05-02T02:06:52;99903.10;;;8.30;58.85
67987;BME280;54767;53.800;15.956;2023-05-02T02:09:22;99902.89;;;8.24;58.84
67987;BME280;54767;53.800;15.956;2023-05-02T02:12:09;99904.28;;;8.22;58.91
67987;BME280;54767;53.800;15.956;2023-05-02T02:14:42;99911.05;;;8.18;58.81
67987;BME280;54767;53.800;15.956;2023-05-02T02:17:42;99908.08;;;8.16;58.98
67987;BME280;54767;53.800;15.956;2023-05-02T02:20:12;99904.90;;;8.11;59.14
67987;BME280;54767;53.800;15.956;2023-05-02T02:22:43;99905.93;;;8.08;59.07
67987;BME280;54767;53.800;15.956;2023-05-02T02:25:15;99904.34;;;8.05;59.11
67987;BME280;54767;53.800;15.956;2023-05-02T02:27:44;99906.59;;;8.02;59.19
67987;BME280;54767;53.800;15.956;2023-05-02T02:30:12;99909.19;;;7.99;59.23
67987;BME280;54767;53.800;15.956;2023-05-02T02:32:41;99914.04;;;7.96;59.20
67987;BME280;54767;53.800;15.956;2023-05-02T02:35:10;99918.02;;;7.92;59.39
67987;BME280;54767;53.800;15.956;2023-05-02T02:37:43;99917.65;;;7.90;59.42
67987;BME280;54767;53.800;15.956;2023-05-02T02:40:33;99917.27;;;7.87;59.50
67987;BME280;54767;53.800;15.956;2023-05-02T02:43:18;99917.25;;;7.84;59.56
67987;BME280;54767;53.800;15.956;2023-05-02T02:48:32;99923.54;;;7.85;59.73
67987;BME280;54767;53.800;15.956;2023-05-02T02:51:19;99926.15;;;7.85;59.87
67987;BME280;54767;53.800;15.956;2023-05-02T02:56:34;99920.56;;;7.83;59.92
67987;BME280;54767;53.800;15.956;2023-05-02T02:59:09;99924.89;;;7.81;59.82
67987;BME280;54767;53.800;15.956;2023-05-02T03:01:42;99922.98;;;7.80;59.77
67987;BME280;54767;53.800;15.956;2023-05-02T03:04:14;99925.74;;;7.78;59.78
67987;BME280;54767;53.800;15.956;2023-05-02T03:06:43;99925.89;;;7.74;59.79
67987;BME280;54767;53.800;15.956;2023-05-02T03:09:15;99925.51;;;7.71;59.82
67987;BME280;54767;53.800;15.956;2023-05-02T03:11:46;99932.98;;;7.68;59.96
67987;BME280;54767;53.800;15.956;2023-05-02T03:14:15;99931.20;;;7.65;59.98
67987;BME280;54767;53.800;15.956;2023-05-02T03:16:43;99928.91;;;7.62;60.08
67987;BME280;54767;53.800;15.956;2023-05-02T03:19:12;99923.48;;;7.59;60.05
67987;BME280;54767;53.800;15.956;2023-05-02T03:21:40;99919.11;;;7.56;59.88
67987;BME280;54767;53.800;15.956;2023-05-02T03:24:08;99923.45;;;7.54;60.08
67987;BME280;54767;53.800;15.956;2023-05-02T03:26:36;99925.52;;;7.52;60.23
67987;BME280;54767;53.800;15.956;2023-05-02T03:29:05;99929.66;;;7.49;60.30
67987;BME280;54767;53.800;15.956;2023-05-02T03:31:33;99936.10;;;7.48;60.34
67987;BME280;54767;53.800;15.956;2023-05-02T03:34:02;99937.66;;;7.48;60.59
67987;BME280;54767;53.800;15.956;2023-05-02T03:36:30;99938.21;;;7.51;60.52
67987;BME280;54767;53.800;15.956;2023-05-02T03:38:58;99945.89;;;7.52;60.38
67987;BME280;54767;53.800;15.956;2023-05-02T03:41:27;99946.25;;;7.53;60.55
67987;BME280;54767;53.800;15.956;2023-05-02T03:43:55;99951.13;;;7.54;60.54
67987;BME280;54767;53.800;15.956;2023-05-02T03:46:23;99953.04;;;7.53;60.78
67987;BME280;54767;53.800;15.956;2023-05-02T03:48:52;99955.65;;;7.53;60.72
67987;BME280;54767;53.800;15.956;2023-05-02T03:51:20;99963.83;;;7.52;60.81
67987;BME280;54767;53.800;15.956;2023-05-02T03:53:48;99970.77;;;7.51;60.80
67987;BME280;54767;53.800;15.956;2023-05-02T03:56:17;99973.02;;;7.49;60.78
67987;BME280;54767;53.800;15.956;2023-05-02T03:58:48;99973.17;;;7.47;60.87
67987;BME280;54767;53.800;15.956;2023-05-02T04:01:17;99972.99;;;7.46;60.92
67987;BME280;54767;53.800;15.956;2023-05-02T04:03:45;99976.45;;;7.44;60.94
67987;BME280;54767;53.800;15.956;2023-05-02T04:06:13;99978.70;;;7.42;61.00
67987;BME280;54767;53.800;15.956;2023-05-02T04:08:42;99980.41;;;7.40;60.98
67987;BME280;54767;53.800;15.956;2023-05-02T04:11:10;99981.10;;;7.39;60.99
67987;BME280;54767;53.800;15.956;2023-05-02T04:13:38;99978.15;;;7.40;61.28
67987;BME280;54767;53.800;15.956;2023-05-02T04:16:08;99978.34;;;7.41;61.30
67987;BME280;54767;53.800;15.956;2023-05-02T04:18:36;99976.64;;;7.44;61.40
67987;BME280;54767;53.800;15.956;2023-05-02T04:21:06;99984.85;;;7.48;61.35
67987;BME280;54767;53.800;15.956;2023-05-02T04:23:36;99987.50;;;7.52;61.28
67987;BME280;54767;53.800;15.956;2023-05-02T04:26:04;99988.39;;;7.54;61.36
67987;BME280;54767;53.800;15.956;2023-05-02T04:28:34;99993.98;;;7.55;61.47
67987;BME280;54767;53.800;15.956;2023-05-02T04:31:03;99998.15;;;7.55;61.45
67987;BME280;54767;53.800;15.956;2023-05-02T04:33:31;100000.94;;;7.55;61.49
67987;BME280;54767;53.800;15.956;2023-05-02T04:35:59;100005.48;;;7.57;61.74
67987;BME280;54767;53.800;15.956;2023-05-02T04:38:28;100012.31;;;7.59;61.80
67987;BME280;54767;53.800;15.956;2023-05-02T04:40:56;100013.02;;;7.61;61.87
67987;BME280;54767;53.800;15.956;2023-05-02T04:43:24;100021.05;;;7.63;61.87
67987;BME280;54767;53.800;15.956;2023-05-02T04:45:53;100019.33;;;7.65;61.88
67987;BME280;54767;53.800;15.956;2023-05-02T04:48:21;100021.84;;;7.71;62.15
67987;BME280;54767;53.800;15.956;2023-05-02T04:50:51;100027.14;;;7.80;62.50
67987;BME280;54767;53.800;15.956;2023-05-02T04:53:21;100029.15;;;7.88;62.28
67987;BME280;54767;53.800;15.956;2023-05-02T04:55:50;100030.27;;;7.98;62.51
67987;BME280;54767;53.800;15.956;2023-05-02T04:58:19;100027.93;;;8.08;62.38
67987;BME280;54767;53.800;15.956;2023-05-02T05:00:47;100029.44;;;8.20;62.59
67987;BME280;54767;53.800;15.956;2023-05-02T05:03:15;100033.70;;;8.31;62.88
67987;BME280;54767;53.800;15.956;2023-05-02T05:05:44;100035.38;;;8.42;62.60
67987;BME280;54767;53.800;15.956;2023-05-02T05:08:13;100036.85;;;8.51;62.55
67987;BME280;54767;53.800;15.956;2023-05-02T05:10:41;100043.38;;;8.62;62.36
67987;BME280;54767;53.800;15.956;2023-05-02T05:13:09;100042.58;;;8.74;62.27
67987;BME280;54767;53.800;15.956;2023-05-02T05:15:39;100045.81;;;8.89;62.46
67987;BME280;54767;53.800;15.956;2023-05-02T05:18:07;100053.26;;;9.11;62.55
67987;BME280;54767;53.800;15.956;2023-05-02T05:20:36;100059.83;;;9.37;62.70
67987;BME280;54767;53.800;15.956;2023-05-02T05:23:04;100067.24;;;9.56;62.41
67987;BME280;54767;53.800;15.956;2023-05-02T05:25:33;100070.45;;;9.76;61.98
67987;BME280;54767;53.800;15.956;2023-05-02T05:28:01;100069.44;;;9.93;61.95
67987;BME280;54767;53.800;15.956;2023-05-02T05:30:30;100070.16;;;10.10;61.43
67987;BME280;54767;53.800;15.956;2023-05-02T05:32:58;100075.27;;;10.24;61.48
67987;BME280;54767;53.800;15.956;2023-05-02T05:35:26;100080.19;;;10.44;61.29
67987;BME280;54767;53.800;15.956;2023-05-02T05:37:55;100082.98;;;10.59;61.19
67987;BME280;54767;53.800;15.956;2023-05-02T05:40:23;100085.77;;;10.86;61.40
67987;BME280;54767;53.800;15.956;2023-05-02T05:42:52;100088.70;;;11.05;60.71
67987;BME280;54767;53.800;15.956;2023-05-02T05:45:20;100087.26;;;11.18;60.47
67987;BME280;54767;53.800;15.956;2023-05-02T05:47:49;100085.27;;;11.35;60.32
67987;BME280;54767;53.800;15.956;2023-05-02T05:50:18;100090.78;;;11.60;60.82
67987;BME280;54767;53.800;15.956;2023-05-02T05:52:47;100093.97;;;11.91;61.14
67987;BME280;54767;53.800;15.956;2023-05-02T05:55:15;100094.15;;;12.21;60.73
67987;BME280;54767;53.800;15.956;2023-05-02T05:57:43;100101.36;;;12.42;59.90
67987;BME280;54767;53.800;15.956;2023-05-02T06:00:12;100105.83;;;12.55;59.66
67987;BME280;54767;53.800;15.956;2023-05-02T06:02:41;100106.47;;;12.62;59.21
67987;BME280;54767;53.800;15.956;2023-05-02T06:05:09;100112.73;;;12.69;59.01
67987;BME280;54767;53.800;15.956;2023-05-02T06:07:38;100112.48;;;12.76;59.15
67987;BME280;54767;53.800;15.956;2023-05-02T06:10:06;100104.83;;;12.88;59.18
67987;BME280;54767;53.800;15.956;2023-05-02T06:12:36;100108.77;;;13.00;59.13
67987;BME280;54767;53.800;15.956;2023-05-02T06:15:05;100113.26;;;13.06;58.78
67987;BME280;54767;53.800;15.956;2023-05-02T06:17:33;100114.98;;;13.08;58.73
67987;BME280;54767;53.800;15.956;2023-05-02T06:20:01;100121.77;;;13.16;58.80
67987;BME280;54767;53.800;15.956;2023-05-02T06:22:30;100127.86;;;13.23;58.92
67987;BME280;54767;53.800;15.956;2023-05-02T06:24:58;100131.48;;;13.32;58.88
67987;BME280;54767;53.800;15.956;2023-05-02T06:27:27;100140.36;;;13.38;58.80
67987;BME280;54767;53.800;15.956;2023-05-02T06:30:00;100142.61;;;13.42;58.68
67987;BME280;54767;53.800;15.956;2023-05-02T06:32:32;100141.51;;;13.47;58.68
67987;BME280;54767;53.800;15.956;2023-05-02T06:35:01;100142.69;;;13.50;58.50
67987;BME280;54767;53.800;15.956;2023-05-02T06:37:35;100151.64;;;13.52;58.56
67987;BME280;54767;53.800;15.956;2023-05-02T06:40:04;100155.79;;;13.58;58.77
67987;BME280;54767;53.800;15.956;2023-05-02T06:42:32;100158.87;;;13.65;59.01
67987;BME280;54767;53.800;15.956;2023-05-02T06:45:00;100162.48;;;13.72;58.89
67987;BME280;54767;53.800;15.956;2023-05-02T06:47:29;100170.50;;;13.78;58.98
67987;BME280;54767;53.800;15.956;2023-05-02T06:49:57;100174.14;;;13.84;58.90
67987;BME280;54767;53.800;15.956;2023-05-02T06:52:26;100180.98;;;13.86;58.59
67987;BME280;54767;53.800;15.956;2023-05-02T06:54:54;100183.56;;;13.89;58.80
67987;BME280;54767;53.800;15.956;2023-05-02T06:57:23;100190.02;;;13.95;58.85
67987;BME280;54767;53.800;15.956;2023-05-02T06:59:52;100192.23;;;14.00;58.90
67987;BME280;54767;53.800;15.956;2023-05-02T07:02:20;100200.63;;;14.04;58.77
67987;BME280;54767;53.800;15.956;2023-05-02T07:04:49;100208.17;;;14.05;58.82
67987;BME280;54767;53.800;15.956;2023-05-02T07:07:17;100213.30;;;14.02;58.81
67987;BME280;54767;53.800;15.956;2023-05-02T07:09:48;100215.05;;;14.03;58.90
67987;BME280;54767;53.800;15.956;2023-05-02T07:12:16;100221.92;;;14.01;58.78
67987;BME280;54767;53.800;15.956;2023-05-02T07:14:44;100223.71;;;14.00;58.88
67987;BME280;54767;53.800;15.956;2023-05-02T07:17:14;100227.61;;;13.99;58.95
67987;BME280;54767;53.800;15.956;2023-05-02T07:19:42;100238.50;;;14.00;59.08
67987;BME280;54767;53.800;15.956;2023-05-02T07:22:12;100243.55;;;14.04;59.21
67987;BME280;54767;53.800;15.956;2023-05-02T07:24:41;100246.72;;;14.04;59.33
67987;BME280;54767;53.800;15.956;2023-05-02T07:27:11;100247.79;;;14.03;59.44
67987;BME280;54767;53.800;15.956;2023-05-02T07:29:40;100251.11;;;14.04;59.59
67987;BME280;54767;53.800;15.956;2023-05-02T07:32:10;100253.40;;;14.05;59.70
67987;BME280;54767;53.800;15.956;2023-05-02T07:34:39;100258.48;;;14.06;59.79
67987;BME280;54767;53.800;15.956;2023-05-02T07:37:31;100257.78;;;14.06;59.81
67987;BME280;54767;53.800;15.956;2023-05-02T07:40:25;100263.61;;;14.03;59.91
67987;BME280;54767;53.800;15.956;2023-05-02T07:42:57;100274.02;;;14.02;60.03
67987;BME280;54767;53.800;15.956;2023-05-02T07:45:31;100280.70;;;14.03;60.18
67987;BME280;54767;53.800;15.956;2023-05-02T07:48:22;100287.11;;;13.96;60.29
67987;BME280;54767;53.800;15.956;2023-05-02T07:50:53;100287.30;;;13.94;60.44
67987;BME280;54767;53.800;15.956;2023-05-02T07:53:21;100286.41;;;13.95;60.82
67987;BME280;54767;53.800;15.956;2023-05-02T07:55:50;100292.72;;;13.98;60.86
67987;BME280;54767;53.800;15.956;2023-05-02T07:58:18;100302.18;;;14.00;60.94
67987;BME280;54767;53.800;15.956;2023-05-02T08:00:46;100309.76;;;14.00;60.94
67987;BME280;54767;53.800;15.956;2023-05-02T08:03:15;100312.77;;;13.98;61.07
67987;BME280;54767;53.800;15.956;2023-05-02T08:05:43;100312.80;;;13.95;61.08
67987;BME280;54767;53.800;15.956;2023-05-02T08:08:12;100316.18;;;13.92;60.96
67987;BME280;54767;53.800;15.956;2023-05-02T08:10:40;100316.55;;;13.90;60.87
67987;BME280;54767;53.800;15.956;2023-05-02T08:13:09;100318.84;;;13.89;60.98
67987;BME280;54767;53.800;15.956;2023-05-02T08:15:38;100320.61;;;13.89;61.14
67987;BME280;54767;53.800;15.956;2023-05-02T08:18:06;100325.35;;;13.90;61.14
67987;BME280;54767;53.800;15.956;2023-05-02T08:20:35;100328.16;;;13.91;61.25
67987;BME280;54767;53.800;15.956;2023-05-02T08:23:03;100335.39;;;13.89;61.30
67987;BME280;54767;53.800;15.956;2023-05-02T08:25:32;100334.21;;;13.84;61.28
67987;BME280;54767;53.800;15.956;2023-05-02T08:28:00;100341.63;;;13.81;61.32
67987;BME280;54767;53.800;15.956;2023-05-02T08:30:29;100346.91;;;13.81;61.55
67987;BME280;54767;53.800;15.956;2023-05-02T08:32:58;100349.40;;;13.77;61.44
67987;BME280;54767;53.800;15.956;2023-05-02T08:35:30;100354.04;;;13.69;61.45
67987;BME280;54767;53.800;15.956;2023-05-02T08:38:01;100358.31;;;13.64;61.62
67987;BME280;54767;53.800;15.956;2023-05-02T08:40:34;100362.73;;;13.59;61.71
67987;BME280;54767;53.800;15.956;2023-05-02T08:43:05;100371.20;;;13.57;61.76
67987;BME280;54767;53.800;15.956;2023-05-02T08:45:36;100368.75;;;13.56;61.89
67987;BME280;54767;53.800;15.956;2023-05-02T08:48:10;100377.23;;;13.53;61.97
67987;BME280;54767;53.800;15.956;2023-05-02T08:50:41;100381.30;;;13.47;62.01
67987;BME280;54767;53.800;15.956;2023-05-02T08:53:11;100383.63;;;13.42;62.14
67987;BME280;54767;53.800;15.956;2023-05-02T08:55:43;100391.41;;;13.36;62.21
67987;BME280;54767;53.800;15.956;2023-05-02T08:58:12;100391.80;;;13.30;62.64
67987;BME280;54767;53.800;15.956;2023-05-02T09:00:44;100397.80;;;13.23;62.75
67987;BME280;54767;53.800;15.956;2023-05-02T09:03:36;100402.94;;;13.12;63.21
67987;BME280;54767;53.800;15.956;2023-05-02T09:06:08;100412.33;;;12.99;63.66
67987;BME280;54767;53.800;15.956;2023-05-02T09:08:39;100419.42;;;12.86;64.14
67987;BME280;54767;53.800;15.956;2023-05-02T09:11:09;100429.30;;;12.76;64.85
67987;BME280;54767;53.800;15.956;2023-05-02T09:13:43;100438.64;;;12.64;65.25
67987;BME280;54767;53.800;15.956;2023-05-02T09:16:13;100442.89;;;12.52;65.84
67987;BME280;54767;53.800;15.956;2023-05-02T09:18:42;100448.89;;;12.39;66.42
67987;BME280;54767;53.800;15.956;2023-05-02T09:21:21;100454.19;;;12.09;67.18
67987;BME280;54767;53.800;15.956;2023-05-02T09:23:51;100457.34;;;11.84;67.84
67987;BME280;54767;53.800;15.956;2023-05-02T09:26:30;100465.73;;;11.66;68.25
67987;BME280;54767;53.800;15.956;2023-05-02T09:29:02;100465.19;;;11.52;68.63
67987;BME280;54767;53.800;15.956;2023-05-02T09:31:33;100473.73;;;11.44;68.88
67987;BME280;54767;53.800;15.956;2023-05-02T09:34:21;100467.61;;;11.40;68.73
67987;BME280;54767;53.800;15.956;2023-05-02T09:36:51;100473.75;;;11.47;68.80
67987;BME280;54767;53.800;15.956;2023-05-02T09:39:27;100479.70;;;11.47;69.13
67987;BME280;54767;53.800;15.956;2023-05-02T09:41:57;100487.26;;;11.44;69.47
67987;BME280;54767;53.800;15.956;2023-05-02T09:44:35;100493.00;;;11.36;69.35
67987;BME280;54767;53.800;15.956;2023-05-02T09:47:08;100496.16;;;11.32;69.38
67987;BME280;54767;53.800;15.956;2023-05-02T09:49:46;100507.37;;;11.33;69.64
67987;BME280;54767;53.800;15.956;2023-05-02T09:52:18;100515.95;;;11.32;69.39
67987;BME280;54767;53.800;15.956;2023-05-02T09:54:49;100512.44;;;11.31;69.60
67987;BME280;54767;53.800;15.956;2023-05-02T09:57:19;100514.02;;;11.31;69.55
67987;BME280;54767;53.800;15.956;2023-05-02T09:59:55;100522.27;;;11.36;70.00
67987;BME280;54767;53.800;15.956;2023-05-02T10:02:24;100518.77;;;11.36;69.60
67987;BME280;54767;53.800;15.956;2023-05-02T10:04:55;100518.79;;;11.42;69.79
67987;BME280;54767;53.800;15.956;2023-05-02T10:07:29;100519.51;;;11.50;70.02
67987;BME280;54767;53.800;15.956;2023-05-02T10:10:00;100520.59;;;11.57;69.90
67987;BME280;54767;53.800;15.956;2023-05-02T10:12:37;100528.63;;;11.50;69.10
67987;BME280;54767;53.800;15.956;2023-05-02T10:15:08;100534.56;;;11.43;68.97
67987;BME280;54767;53.800;15.956;2023-05-02T10:17:44;100536.30;;;11.42;69.00
67987;BME280;54767;53.800;15.956;2023-05-02T10:20:22;100543.69;;;11.45;69.15
67987;BME280;54767;53.800;15.956;2023-05-02T10:22:55;100546.16;;;11.51;69.24
67987;BME280;54767;53.800;15.956;2023-05-02T10:25:27;100549.84;;;11.51;68.77
67987;BME280;54767;53.800;15.956;2023-05-02T10:27:56;100550.90;;;11.56;68.97
67987;BME280;54767;53.800;15.956;2023-05-02T10:30:29;100554.79;;;11.61;68.64
67987;BME280;54767;53.800;15.956;2023-05-02T10:32:58;100560.39;;;11.67;68.61
67987;BME280;54767;53.800;15.956;2023-05-02T10:35:27;100560.95;;;11.76;68.62
67987;BME280;54767;53.800;15.956;2023-05-02T10:37:59;100564.98;;;11.82;68.17
67987;BME280;54767;53.800;15.956;2023-05-02T10:40:29;100568.86;;;11.84;67.89
67987;BME280;54767;53.800;15.956;2023-05-02T10:42:58;100562.90;;;11.84;67.79
67987;BME280;54767;53.800;15.956;2023-05-02T10:45:31;100567.32;;;11.86;67.73
67987;BME280;54767;53.800;15.956;2023-05-02T10:48:18;100562.58;;;11.91;67.49
67987;BME280;54767;53.800;15.956;2023-05-02T10:50:57;100568.73;;;11.93;67.15
67987;BME280;54767;53.800;15.956;2023-05-02T10:53:45;100570.15;;;11.99;67.28
67987;BME280;54767;53.800;15.956;2023-05-02T10:56:25;100568.58;;;12.06;66.86
67987;BME280;54767;53.800;15.956;2023-05-02T10:59:25;100570.16;;;12.12;66.61
67987;BME280;54767;53.800;15.956;2023-05-02T11:01:55;100570.68;;;12.24;66.63
67987;BME280;54767;53.800;15.956;2023-05-02T11:04:24;100576.48;;;12.34;66.57
67987;BME280;54767;53.800;15.956;2023-05-02T11:09:51;100573.50;;;12.60;66.72
67987;BME280;54767;53.800;15.956;2023-05-02T11:12:52;100575.23;;;12.72;66.17
67987;BME280;54767;53.800;15.956;2023-05-02T11:18:00;100580.33;;;12.85;64.44
67987;BME280;54767;53.800;15.956;2023-05-02T11:20:29;100580.32;;;12.85;63.70
67987;BME280;54767;53.800;15.956;2023-05-02T11:23:19;100588.92;;;12.89;63.65
67987;BME280;54767;53.800;15.956;2023-05-02T11:25:57;100586.63;;;12.94;63.41
67987;BME280;54767;53.800;15.956;2023-05-02T11:31:09;100597.67;;;13.05;62.44
67987;BME280;54767;53.800;15.956;2023-05-02T11:41:15;100593.38;;;13.38;62.41
67987;BME280;54767;53.800;15.956;2023-05-02T11:45:37;100605.63;;;13.51;61.60
67987;BME280;54767;53.800;15.956;2023-05-02T11:53:12;100620.92;;;13.53;60.41
67987;BME280;54767;53.800;15.956;2023-05-02T11:56:05;100628.50;;;13.50;59.37
67987;BME280;54767;53.800;15.956;2023-05-02T11:59:05;100627.63;;;13.46;58.27
67987;BME280;54767;53.800;15.956;2023-05-02T12:11:07;100633.92;;;13.55;57.33
67987;BME280;54767;53.800;15.956;2023-05-02T12:13:46;100643.70;;;13.72;57.50
67987;BME280;54767;53.800;15.956;2023-05-02T12:17:22;100646.45;;;13.89;57.75
67987;BME280;54767;53.800;15.956;2023-05-02T12:20:17;100649.53;;;14.05;57.69
67987;BME280;54767;53.800;15.956;2023-05-02T12:22:48;100646.80;;;14.19;56.51
67987;BME280;54767;53.800;15.956;2023-05-02T12:25:44;100649.38;;;14.30;55.69
67987;BME280;54767;53.800;15.956;2023-05-02T12:28:17;100653.02;;;14.40;55.16
67987;BME280;54767;53.800;15.956;2023-05-02T12:30:51;100654.36;;;14.47;54.68
67987;BME280;54767;53.800;15.956;2023-05-02T12:33:29;100659.27;;;14.54;54.58
67987;BME280;54767;53.800;15.956;2023-05-02T12:37:04;100657.43;;;14.65;53.55
67987;BME280;54767;53.800;15.956;2023-05-02T12:40:53;100655.28;;;14.69;52.48
67987;BME280;54767;53.800;15.956;2023-05-02T12:43:27;100667.89;;;14.79;51.44
67987;BME280;54767;53.800;15.956;2023-05-02T12:46:34;100675.12;;;14.77;50.21
67987;BME280;54767;53.800;15.956;2023-05-02T12:49:25;100668.99;;;14.46;48.00
67987;BME280;54767;53.800;15.956;2023-05-02T12:51:57;100682.84;;;14.27;48.08
67987;BME280;54767;53.800;15.956;2023-05-02T12:54:26;100683.25;;;14.17;50.04
67987;BME280;54767;53.800;15.956;2023-05-02T12:57:24;100680.58;;;14.23;51.06
67987;BME280;54767;53.800;15.956;2023-05-02T13:01:42;100687.56;;;14.32;50.91
67987;BME280;54767;53.800;15.956;2023-05-02T13:04:43;100696.88;;;14.36;49.83
67987;BME280;54767;53.800;15.956;2023-05-02T13:07:13;100704.27;;;14.35;50.42
67987;BME280;54767;53.800;15.956;2023-05-02T13:09:45;100704.26;;;14.38;48.82
67987;BME280;54767;53.800;15.956;2023-05-02T13:12:19;100703.83;;;14.21;48.18
67987;BME280;54767;53.800;15.956;2023-05-02T13:14:48;100706.55;;;14.06;48.73
67987;BME280;54767;53.800;15.956;2023-05-02T13:17:24;100713.46;;;13.92;49.51
67987;BME280;54767;53.800;15.956;2023-05-02T13:20:02;100716.65;;;13.87;48.99
67987;BME280;54767;53.800;15.956;2023-05-02T13:22:35;100720.04;;;13.75;49.26
67987;BME280;54767;53.800;15.956;2023-05-02T13:25:11;100728.70;;;13.60;49.59
67987;BME280;54767;53.800;15.956;2023-05-02T13:30:59;100732.07;;;13.43;49.99
67987;BME280;54767;53.800;15.956;2023-05-02T13:33:38;100740.35;;;13.41;50.36
67987;BME280;54767;53.800;15.956;2023-05-02T13:36:48;100745.77;;;13.49;50.86
67987;BME280;54767;53.800;15.956;2023-05-02T13:43:24;100739.65;;;13.29;49.35
67987;BME280;54767;53.800;15.956;2023-05-02T13:45:59;100748.80;;;13.31;49.26
67987;BME280;54767;53.800;15.956;2023-05-02T13:48:53;100750.38;;;13.24;48.66
67987;BME280;54767;53.800;15.956;2023-05-02T13:52:13;100754.73;;;13.22;49.45
67987;BME280;54767;53.800;15.956;2023-05-02T13:54:42;100755.28;;;13.21;48.56
67987;BME280;54767;53.800;15.956;2023-05-02T13:57:11;100760.54;;;13.08;48.52
67987;BME280;54767;53.800;15.956;2023-05-02T13:59:39;100757.91;;;12.93;48.52
67987;BME280;54767;53.800;15.956;2023-05-02T14:02:13;100759.82;;;12.78;49.20
67987;BME280;54767;53.800;15.956;2023-05-02T14:04:47;100769.98;;;12.64;48.24
67987;BME280;54767;53.800;15.956;2023-05-02T14:07:15;100773.81;;;12.48;48.39